Time;durP1;ratioP1;P1;durP2;ratioP2;P2;SDS_P1;SDS_P2;PMS_P1;PMS_P2;Temp;Humidity;BMP_temperature;BMP_pressure;BME280_temperature;BME280_humidity;BME280_pressure;Samples;Min_cycle;Max_cycle;Signal;HPM_P1;HPM_P2
2023/12/02 00:04:10;;;;;;;109.40;74.60;;;;;;;-1.77;100.00;99514.44;109835;1291;21977;-76
2023/12/02 00:07:41;;;;;;;99.30;62.80;;;;;;;-1.82;100.00;99504.38;109186;1297;21955;-76
2023/12/02 00:10:41;;;;;;;107.90;73.70;;;;;;;-1.84;100.00;99501.81;108793;1300;22198;-76
2023/12/02 00:13:24;;;;;;;107.20;75.20;;;;;;;-1.85;100.00;99503.86;108589;1299;22297;-77
2023/12/02 00:16:55;;;;;;;106.70;73.80;;;;;;;-1.87;100.00;99504.73;109099;1294;22032;-79
2023/12/02 00:20:05;;;;;;;;;;;;;;;;;;;;;
2023/12/02 00:22:41;;;;;;;102.80;74.60;;;;;;;-1.94;100.00;99514.61;109196;1294;21855;-75
2023/12/02 00:26:07;;;;;;;;;;;;;;;;;;;;;
2023/12/02 00:29:23;;;;;;;104.20;72.00;;;;;;;-1.95;100.00;99513.08;109186;1297;21876;-76
2023/12/02 00:32:39;;;;;;;105.90;73.20;;;;;;;-1.96;100.00;99510.86;109397;1297;21851;-77
2023/12/02 00:35:48;;;;;;;104.10;71.60;;;;;;;-1.95;100.00;99509.16;109354;1297;22349;-76
2023/12/02 00:38:24;;;;;;;100.30;71.00;;;;;;;-1.92;100.00;99508.81;109672;1290;21931;-76
2023/12/02 00:41:27;;;;;;;112.50;73.50;;;;;;;-1.90;100.00;99519.39;109809;1292;21944;-75
2023/12/02 00:44:10;;;;;;;102.00;73.70;;;;;;;-1.89;100.00;99520.58;109758;1292;22367;-78
2023/12/02 00:46:42;;;;;;;97.80;71.70;;;;;;;-1.86;100.00;99526.71;109850;1289;22632;-76
2023/12/02 00:49:18;;;;;;;104.10;73.60;;;;;;;-1.83;100.00;99527.56;109660;1293;21846;-76
2023/12/02 00:51:50;;;;;;;106.70;76.00;;;;;;;-1.80;100.00;99522.28;109420;1292;22342;-76
2023/12/02 00:58:49;;;;;;;101.30;73.80;;;;;;;-1.79;100.00;99522.96;109272;1296;21881;-77
2023/12/02 01:03:01;;;;;;;105.80;75.20;;;;;;;-1.81;100.00;99515.63;109280;1292;21841;-76
2023/12/02 01:05:43;;;;;;;108.70;76.30;;;;;;;-1.86;100.00;99509.15;108328;1303;21895;-77
2023/12/02 01:08:13;;;;;;;115.60;79.60;;;;;;;-1.87;100.00;99508.81;108300;1302;21979;-76
2023/12/02 01:11:16;;;;;;;108.00;75.80;;;;;;;-1.90;100.00;99497.90;108538;1302;21899;-76
2023/12/02 01:14:11;;;;;;;113.20;78.50;;;;;;;-1.91;100.00;99501.65;108416;1302;21876;-76
2023/12/02 01:17:09;;;;;;;99.80;71.30;;;;;;;-1.95;100.00;99508.13;108767;1300;22272;-77
2023/12/02 01:20:14;;;;;;;108.80;77.40;;;;;;;-1.94;100.00;99516.14;109233;1297;21967;-76
2023/12/02 01:23:19;;;;;;;121.30;80.40;;;;;;;-1.94;100.00;99522.11;108448;1301;21966;-77
2023/12/02 01:26:18;;;;;;;110.80;79.30;;;;;;;-1.92;100.00;99517.67;108547;1301;21845;-79
2023/12/02 01:28:58;;;;;;;118.50;80.50;;;;;;;-1.90;100.00;99522.98;108424;1302;21938;-76
2023/12/02 01:32:05;;;;;;;;;;;;;;;;;;;;;
2023/12/02 01:35:54;;;;;;;;;;;;;;;;;;;;;
2023/12/02 01:39:55;;;;;;;112.50;80.10;;;;;;;-1.86;100.00;99514.77;109666;1294;22410;-76
2023/12/02 01:43:14;;;;;;;;;;;;;;;;;;;;;
2023/12/02 01:45:59;;;;;;;116.50;81.70;;;;;;;-1.83;100.00;99508.81;109863;1289;22242;-75
2023/12/02 01:49:03;;;;;;;111.60;78.90;;;;;;;-1.80;100.00;99512.38;109849;1289;21816;-76
2023/12/02 01:55:49;;;;;;;114.50;77.80;;;;;;;-1.79;100.00;99512.56;109628;1295;22317;-76
2023/12/02 01:59:06;;;;;;;;;;;;;;;;;;;;;
2023/12/02 02:02:39;;;;;;;;;;;;;;;;;;;;;
2023/12/02 02:05:28;;;;;;;112.90;79.30;;;;;;;-1.75;100.00;99516.31;109688;1291;22272;-77
2023/12/02 02:09:28;;;;;;;116.20;83.30;;;;;;;-1.78;100.00;99518.86;109640;1292;21918;-77
2023/12/02 02:12:37;;;;;;;;;;;;;;;;;;;;;
2023/12/02 02:15:34;;;;;;;;;;;;;;;-1.86;100.00;99535.76;109787;1291;21951;-76
2023/12/02 02:18:41;;;;;;;116.80;83.30;;;;;;;-1.85;100.00;99530.48;109801;1288;21916;-77
2023/12/02 02:21:54;;;;;;;125.40;83.80;;;;;;;-1.86;100.00;99536.44;109752;1288;21942;-76
2023/12/02 02:25:03;;;;;;;113.70;79.90;;;;;;;-1.86;100.00;99538.15;109862;1290;22218;-74
2023/12/02 02:27:42;;;;;;;117.60;81.10;;;;;;;-1.83;100.00;99521.08;109844;1289;21922;-76
2023/12/02 02:30:38;;;;;;;99.90;74.10;;;;;;;-1.80;100.00;99515.11;109560;1295;21967;-76
2023/12/02 02:34:02;;;;;;;109.20;76.90;;;;;;;-1.83;100.00;99515.80;109659;1289;21778;-76
2023/12/02 02:37:03;;;;;;;119.00;82.20;;;;;;;-1.84;100.00;99507.78;109616;1295;22407;-75
2023/12/02 02:40:20;;;;;;;123.20;86.90;;;;;;;-1.84;100.00;99504.03;109233;1297;22019;-76
2023/12/02 02:43:21;;;;;;;148.20;99.90;;;;;;;-1.80;100.00;99505.73;109328;1296;21946;-75
2023/12/02 02:46:49;;;;;;;153.10;101.50;;;;;;;-1.78;100.00;99511.02;109328;1296;22515;-75
2023/12/02 02:49:36;;;;;;;159.70;109.10;;;;;;;-1.76;100.00;99507.27;109718;1291;21867;-76
2023/12/02 02:52:49;;;;;;;170.30;114.80;;;;;;;-1.73;100.00;99509.82;109842;1291;21848;-77
2023/12/02 02:56:01;;;;;;;189.20;121.10;;;;;;;-1.69;100.00;99511.86;109788;1291;21783;-78
2023/12/02 02:59:54;;;;;;;;;;;;;;;;;;;;;
2023/12/02 03:02:40;;;;;;;179.00;118.50;;;;;;;-1.69;100.00;99522.27;109959;1280;21985;-77
2023/12/02 03:06:25;;;;;;;195.80;127.90;;;;;;;-1.68;100.00;99514.76;109940;1286;22387;-78
2023/12/02 03:09:21;;;;;;;200.50;129.70;;;;;;;-1.68;100.00;99505.04;110148;1283;21838;-76
2023/12/02 03:12:02;;;;;;;191.40;128.40;;;;;;;-1.69;100.00;99501.95;110229;1280;22313;-75
2023/12/02 03:15:01;;;;;;;193.00;131.20;;;;;;;-1.69;100.00;99502.83;110261;1280;21875;-76
2023/12/02 03:18:32;;;;;;;184.80;122.60;;;;;;;-1.72;100.00;99501.45;110285;1280;22314;-76
2023/12/02 03:21:38;;;;;;;192.70;124.80;;;;;;;-1.74;100.00;99501.13;110092;1282;21829;-76
2023/12/02 03:26:26;;;;;;;;;;;;;;;;;;;;;
2023/12/02 03:30:04;;;;;;;194.10;123.40;;;;;;;-1.62;100.00;99496.66;109414;1273;23294;-78
2023/12/02 03:33:08;;;;;;;195.10;125.00;;;;;;;-1.69;100.00;99495.83;109373;1271;22162;-76
2023/12/02 03:36:11;;;;;;;178.00;117.40;;;;;;;-1.74;100.00;99493.79;109501;1271;22291;-76
2023/12/02 03:39:33;;;;;;;189.70;125.80;;;;;;;-1.76;100.00;99493.28;106917;1269;3719525;-76
2023/12/02 03:43:01;;;;;;;185.40;123.10;;;;;;;-1.81;100.00;99497.20;109703;1269;23127;-76
2023/12/02 03:46:01;;;;;;;;;;;;;;;;;;;;;
2023/12/02 03:48:54;;;;;;;195.10;126.90;;;;;;;-1.87;100.00;99495.34;110099;1265;23621;-76
2023/12/02 03:52:09;;;;;;;190.60;127.20;;;;;;;-1.91;100.00;99489.02;110679;1259;23162;-76
2023/12/02 03:55:18;;;;;;;;;;;;;;;;;;;;;
2023/12/02 03:58:31;;;;;;;152.20;105.50;;;;;;;-1.94;100.00;99478.46;110326;1264;22442;-76
2023/12/02 04:01:26;;;;;;;133.30;95.80;;;;;;;-1.97;100.00;99479.15;109695;1269;23834;-76
2023/12/02 04:04:15;;;;;;;133.00;93.90;;;;;;;-1.98;100.00;99476.92;109990;1268;22747;-76
2023/12/02 04:07:26;;;;;;;130.80;92.20;;;;;;;-1.99;100.00;99471.14;109940;1269;21998;-76
2023/12/02 04:10:15;;;;;;;134.20;90.80;;;;;;;-2.00;100.00;99471.81;109945;1269;21979;-76
2023/12/02 04:13:09;;;;;;;;;;;;;;;;;;;;;
2023/12/02 04:15:47;;;;;;;138.60;93.30;;;;;;;-2.04;100.00;99480.35;110091;1263;21998;-76
2023/12/02 04:18:26;;;;;;;133.40;94.10;;;;;;;-2.05;100.00;99477.79;110344;1263;23847;-76
2023/12/02 04:21:08;;;;;;;142.80;98.40;;;;;;;-2.05;100.00;99480.85;110710;1259;21958;-75
2023/12/02 04:23:58;;;;;;;132.70;94.00;;;;;;;-2.06;100.00;99479.50;110700;1259;23609;-76
2023/12/02 04:26:52;;;;;;;134.60;94.40;;;;;;;-2.11;100.00;99473.20;110742;1259;21973;-74
2023/12/02 04:30:33;;;;;;;139.40;94.30;;;;;;;-2.17;100.00;99478.47;109860;1268;21987;-76
2023/12/02 04:37:06;;;;;;;134.50;94.20;;;;;;;-2.25;100.00;99481.36;109346;1273;23717;-76
2023/12/02 04:40:21;;;;;;;132.20;92.60;;;;;;;-2.27;100.00;99471.98;109287;1273;21963;-76
2023/12/02 04:43:18;;;;;;;134.30;95.60;;;;;;;-2.28;100.00;99474.21;108835;1280;22139;-76
2023/12/02 04:46:39;;;;;;;139.80;95.40;;;;;;;-2.28;100.00;99477.79;108804;1267;23141;-74
2023/12/02 04:49:56;;;;;;;138.10;97.80;;;;;;;-2.28;100.00;99479.84;108461;1284;22467;-76
2023/12/02 04:52:52;;;;;;;148.20;98.90;;;;;;;-2.25;100.00;99480.02;108464;1281;22028;-76
2023/12/02 04:56:25;;;;;;;142.00;97.90;;;;;;;-2.22;100.00;99485.98;108243;1284;21980;-75
2023/12/02 04:59:25;;;;;;;143.30;98.60;;;;;;;-2.20;100.00;99489.39;107802;1290;22008;-76
2023/12/02 05:02:08;;;;;;;132.10;92.80;;;;;;;-2.17;100.00;99489.05;108480;1283;22004;-76
2023/12/02 05:05:24;;;;;;;137.80;97.60;;;;;;;-2.15;100.00;99483.92;108007;1287;22778;-76
2023/12/02 05:08:05;;;;;;;140.30;98.10;;;;;;;-2.13;100.00;99478.81;107862;1288;22805;-75
2023/12/02 05:10:46;;;;;;;135.70;95.50;;;;;;;-2.11;100.00;99479.16;108297;1286;22989;-76
2023/12/02 05:13:46;;;;;;;135.00;96.50;;;;;;;-2.08;100.00;99480.86;108230;1285;23849;-75
2023/12/02 05:16:35;;;;;;;;;;;;;;;-2.10;100.00;99473.36;108384;1285;22015;-76
2023/12/02 05:19:39;;;;;;;137.90;92.90;;;;;;;-2.18;100.00;99469.27;108500;1278;21992;-75
2023/12/02 05:22:39;;;;;;;142.40;95.80;;;;;;;-2.21;100.00;99458.88;108752;1273;23084;-75
2023/12/02 05:26:26;;;;;;;141.00;96.80;;;;;;;-2.22;100.00;99450.52;108629;1281;22454;-77
2023/12/02 05:29:06;;;;;;;139.30;96.30;;;;;;;-2.23;100.00;99451.72;108791;1269;22965;-77
2023/12/02 05:32:36;;;;;;;142.70;100.30;;;;;;;-2.27;100.00;99444.73;109644;1264;21967;-77
2023/12/02 05:36:20;;;;;;;137.40;98.00;;;;;;;-2.32;100.00;99438.09;110328;1264;22011;-76
2023/12/02 05:39:55;;;;;;;149.00;98.30;;;;;;;-2.37;100.00;99430.92;109858;1267;21976;-77
2023/12/02 05:43:56;;;;;;;151.30;101.70;;;;;;;-2.40;100.00;99439.11;110069;1266;21976;-79
2023/12/02 05:47:16;;;;;;;151.40;103.00;;;;;;;-2.51;100.00;99434.00;110193;1254;23031;-79
2023/12/02 05:51:12;;;;;;;;;;;;;;;;;;;;;
2023/12/02 05:54:48;;;;;;;144.90;97.00;;;;;;;-2.49;100.00;99439.96;109686;1271;22520;-75
2023/12/02 05:58:45;;;;;;;145.70;99.40;;;;;;;-2.50;100.00;99437.73;109040;1276;22054;-75
2023/12/02 06:02:43;;;;;;;;;;;;;;;;;;;;;
2023/12/02 06:06:58;;;;;;;;;;;;;;;;;;;;;
2023/12/02 06:10:53;;;;;;;147.20;101.50;;;;;;;-2.59;100.00;99446.42;108615;1279;22450;-78
2023/12/02 06:14:41;;;;;;;146.80;99.10;;;;;;;-2.62;100.00;99456.48;108089;1290;23770;-78
2023/12/02 06:17:39;;;;;;;;;;;;;;;;;;;;;
2023/12/02 06:20:48;;;;;;;161.80;105.90;;;;;;;-2.57;100.00;99444.20;107984;1292;22029;-76
2023/12/02 06:28:04;;;;;;;162.30;110.20;;;;;;;-2.55;100.00;99446.61;107630;1294;23691;-76
2023/12/02 06:30:57;;;;;;;158.30;104.20;;;;;;;-2.55;100.00;99445.74;107059;1301;22168;-78
2023/12/02 06:34:19;;;;;;;143.00;83.60;;;;;;;-2.51;100.00;99453.91;107116;1301;23014;-76
2023/12/02 06:37:05;;;;;;;167.40;109.70;;;;;;;-2.48;100.00;99462.27;106367;1306;22178;-77
2023/12/02 06:39:50;;;;;;;;;;;;;;;-2.46;100.00;99462.95;106406;1307;22055;-76
2023/12/02 06:42:25;;;;;;;149.30;100.60;;;;;;;-2.38;100.00;99477.11;106271;1306;22023;-76
2023/12/02 06:45:34;;;;;;;162.20;107.30;;;;;;;-2.47;100.00;99464.33;106250;1305;24007;-81
2023/12/02 06:48:26;;;;;;;;;;;;;;;;;;;;;
2023/12/02 06:51:40;;;;;;;155.80;108.30;;;;;;;-2.32;100.00;99489.55;107497;1296;22084;-78
2023/12/02 06:54:59;;;;;;;167.30;117.10;;;;;;;-2.33;100.00;99490.23;107785;1290;23726;-78
2023/12/02 06:58:28;;;;;;;;;;;;;;;;;;;;;
2023/12/02 07:05:39;;;;;;;169.70;114.40;;;;;;;-2.40;100.00;99469.61;108148;1290;22014;-78
2023/12/02 07:12:29;;;;;;;161.70;111.90;;;;;;;-2.40;100.00;99481.20;108452;1284;22010;-78
2023/12/02 07:16:15;;;;;;;172.50;114.00;;;;;;;-2.37;100.00;99487.51;108904;1277;21994;-77
2023/12/02 07:19:00;;;;;;;;;;;;;;;-2.33;100.00;99487.16;108564;1283;21982;-78
2023/12/02 07:22:19;;;;;;;170.20;109.70;;;;;;;-2.38;100.00;99487.67;108630;1284;22655;-77
2023/12/02 07:26:24;;;;;;;167.60;111.50;;;;;;;-2.35;100.00;99499.95;108908;1279;22264;-78
2023/12/02 07:33:27;;;;;;;148.10;101.90;;;;;;;-2.32;100.00;99511.04;107404;1297;22894;-78
2023/12/02 07:36:18;;;;;;;158.40;106.20;;;;;;;-2.28;100.00;99499.27;107490;1296;22089;-78
2023/12/02 07:38:58;;;;;;;157.20;109.10;;;;;;;-2.25;100.00;99500.46;107882;1296;23010;-78
2023/12/02 07:41:29;;;;;;;187.00;128.80;;;;;;;-2.22;100.00;99502.00;107671;1289;21989;-78
2023/12/02 07:44:52;;;;;;;161.60;114.10;;;;;;;-2.21;100.00;99506.77;108082;1289;22009;-79
2023/12/02 07:47:43;;;;;;;155.00;108.40;;;;;;;-2.24;100.00;99504.73;108251;1289;22015;-78
2023/12/02 07:54:03;;;;;;;158.60;107.10;;;;;;;-2.33;100.00;99485.80;107821;1292;22010;-76
2023/12/02 07:56:39;;;;;;;140.40;101.30;;;;;;;-2.15;100.00;99507.29;108102;1285;22015;-81
2023/12/02 07:59:35;;;;;;;;;;;;;;;;;;;;;
2023/12/02 08:02:17;;;;;;;136.90;97.40;;;;;;;-2.06;100.00;99515.81;108542;1285;24383;-79
2023/12/02 08:04:51;;;;;;;143.20;102.60;;;;;;;-2.05;100.00;99517.34;108464;1285;23622;-78
2023/12/02 08:07:25;;;;;;;138.40;97.30;;;;;;;-2.04;100.00;99524.50;108633;1280;23004;-80
2023/12/02 08:10:04;;;;;;;155.00;103.70;;;;;;;-2.02;100.00;99533.20;109231;1267;23715;-80
2023/12/02 08:12:54;;;;;;;148.50;99.20;;;;;;;-2.00;100.00;99537.98;110248;1267;21979;-77
2023/12/02 08:15:41;;;;;;;158.90;105.70;;;;;;;-1.92;100.00;99536.95;109579;1272;21958;-79
2023/12/02 08:18:31;;;;;;;153.70;107.00;;;;;;;-1.91;100.00;99542.23;109496;1272;23618;-80
2023/12/02 08:21:06;;;;;;;151.40;103.90;;;;;;;-1.86;100.00;99547.35;109634;1273;21949;-84
2023/12/02 08:27:17;;;;;;;139.70;97.30;;;;;;;-1.79;100.00;99548.89;109774;1271;22535;-80
2023/12/02 08:29:49;;;;;;;142.10;96.10;;;;;;;-1.72;100.00;99543.92;110020;1266;21987;-80
2023/12/02 08:32:42;;;;;;;141.20;97.80;;;;;;;-1.65;100.00;99544.27;109971;1267;22006;-80
2023/12/02 08:35:53;;;;;;;140.20;98.30;;;;;;;-1.59;100.00;99544.60;110484;1262;23741;-81
2023/12/02 08:39:04;;;;;;;139.00;98.10;;;;;;;-1.55;100.00;99550.23;110739;1262;22112;-82
2023/12/02 08:44:59;;;;;;;110.40;80.10;;;;;;;-1.45;100.00;99557.21;110666;1262;21982;-82
2023/12/02 08:48:14;;;;;;;120.70;85.90;;;;;;;-1.44;100.00;99559.77;110512;1262;21982;-85
2023/12/02 08:51:06;;;;;;;;;;;;;;;-1.43;100.00;99556.36;110905;1262;23029;-84
2023/12/02 08:54:10;;;;;;;116.20;79.70;;;;;;;-1.49;100.00;99550.56;110433;1265;22002;-82
2023/12/02 08:56:48;;;;;;;117.20;81.30;;;;;;;-1.45;100.00;99551.91;110388;1265;21984;-80
2023/12/02 08:59:52;;;;;;;115.10;83.60;;;;;;;-1.38;100.00;99549.86;109246;1274;21988;-76
2023/12/02 09:02:41;;;;;;;119.80;83.10;;;;;;;-1.28;100.00;99549.50;108652;1279;22045;-77
2023/12/02 09:05:31;;;;;;;123.30;84.80;;;;;;;-1.21;100.00;99542.83;108825;1279;23840;-76
2023/12/02 09:08:21;;;;;;;123.10;85.00;;;;;;;-1.16;100.00;99541.61;108782;1278;22090;-76
2023/12/02 09:11:46;;;;;;;;;;;;;;;;;;;;;
2023/12/02 09:14:46;;;;;;;133.80;92.10;;;;;;;-1.15;100.00;99532.89;108459;1284;23760;-77
2023/12/02 09:18:32;;;;;;;123.80;86.00;;;;;;;-1.17;100.00;99539.55;108581;1276;22047;-77
2023/12/02 09:22:53;;;;;;;;;;;;;;;;;;;;;
2023/12/02 09:26:31;;;;;;;129.80;87.50;;;;;;;-1.27;100.00;99557.85;109373;1269;24382;-76
2023/12/02 09:31:14;;;;;;;;;;;;;;;;;;;;;
2023/12/02 09:33:56;;;;;;;;;;;;;;;;;;;;;
2023/12/02 09:37:45;;;;;;;;;;;;;;;;;;;;;
2023/12/02 09:41:17;;;;;;;126.70;85.80;;;;;;;-0.97;100.00;99558.63;107635;1295;22018;-76
2023/12/02 09:44:38;;;;;;;122.10;89.10;;;;;;;-0.90;100.00;99561.33;107503;1295;22028;-76
2023/12/02 09:47:48;;;;;;;128.50;90.20;;;;;;;-0.85;100.00;99565.75;107562;1295;23763;-77
2023/12/02 09:51:02;;;;;;;128.90;87.90;;;;;;;-0.79;100.00;99559.41;107569;1297;22753;-76
2023/12/02 09:54:14;;;;;;;124.90;90.80;;;;;;;-0.74;100.00;99552.55;107614;1295;22570;-76
2023/12/02 09:57:56;;;;;;;126.20;87.60;;;;;;;-0.70;100.00;99546.20;107693;1295;23099;-77
2023/12/02 10:05:51;;;;;;;;;;;;;;;;;;;;;
2023/12/02 10:12:37;;;;;;;157.10;108.70;;;;;;;-0.71;100.00;99525.70;107878;1291;22004;-78
2023/12/02 10:15:28;;;;;;;140.40;91.80;;;;;;;-0.70;100.00;99533.73;107548;1295;22019;-75
2023/12/02 10:18:14;;;;;;;152.40;99.30;;;;;;;-0.70;100.00;99536.63;107657;1290;23057;-78
2023/12/02 10:21:23;;;;;;;138.10;94.30;;;;;;;-0.72;100.00;99524.35;108194;1286;22928;-77
2023/12/02 10:24:23;;;;;;;136.40;96.20;;;;;;;-0.74;100.00;99513.60;108263;1286;24336;-75
2023/12/02 10:28:19;;;;;;;;;;;;;;;;;;;;;
2023/12/02 10:31:50;;;;;;;122.90;89.00;;;;;;;-0.87;100.00;99505.45;108774;1278;22024;-77
2023/12/02 10:35:55;;;;;;;124.90;83.90;;;;;;;-0.86;100.00;99514.67;108607;1277;24349;-78
2023/12/02 10:39:20;;;;;;;129.20;87.60;;;;;;;-0.87;100.00;99513.48;108629;1280;23184;-77
2023/12/02 10:42:53;;;;;;;119.20;85.80;;;;;;;-0.86;100.00;99492.64;108839;1280;22873;-76
2023/12/02 10:49:55;;;;;;;;;;;;;;;;;;;;;
2023/12/02 10:54:18;;;;;;;120.90;82.80;;;;;;;-0.99;100.00;99481.25;109601;1271;22988;-78
2023/12/02 11:02:46;;;;;;;120.90;89.10;;;;;;;-0.92;100.00;99494.09;108076;1287;544322;-75
2023/12/02 11:06:16;;;;;;;130.20;89.60;;;;;;;-0.93;100.00;99508.55;110334;1265;23617;-76
2023/12/02 11:09:50;;;;;;;121.30;91.50;;;;;;;-0.93;100.00;99506.67;110171;1265;21993;-76
2023/12/02 11:12:57;;;;;;;119.70;83.20;;;;;;;-0.92;100.00;99510.77;110144;1265;23675;-76
2023/12/02 11:16:21;;;;;;;120.90;83.70;;;;;;;-0.94;100.00;99522.73;105839;1260;5124932;-76
2023/12/02 11:19:36;;;;;;;129.90;89.80;;;;;;;-0.94;100.00;99535.20;109122;1273;21930;-76
2023/12/02 11:22:46;;;;;;;123.20;82.80;;;;;;;-0.93;100.00;99539.82;109375;1273;21991;-75
2023/12/02 11:26:29;;;;;;;111.70;78.90;;;;;;;-0.93;100.00;99544.95;109351;1273;22005;-75
2023/12/02 11:29:31;;;;;;;114.20;80.90;;;;;;;-0.96;100.00;99557.76;108485;1284;22002;-75
2023/12/02 11:33:13;;;;;;;113.60;78.70;;;;;;;-0.96;100.00;99559.47;108572;1284;23653;-75
2023/12/02 11:35:52;;;;;;;118.20;82.90;;;;;;;-0.95;100.00;99534.19;108685;1281;22463;-75
2023/12/02 11:38:40;;;;;;;120.50;82.60;;;;;;;-0.93;100.00;99510.61;109070;1275;21990;-75
2023/12/02 11:42:08;;;;;;;116.80;80.40;;;;;;;-0.91;100.00;99500.02;109644;1267;23049;-75
2023/12/02 11:45:25;;;;;;;115.50;76.90;;;;;;;-0.92;100.00;99493.70;110206;1267;22007;-78
2023/12/02 11:48:32;;;;;;;116.30;82.30;;;;;;;-0.92;100.00;99509.06;110048;1267;21989;-77
2023/12/02 11:51:31;;;;;;;117.00;81.70;;;;;;;-0.96;100.00;99515.74;109932;1267;22002;-75
2023/12/02 11:54:57;;;;;;;121.00;81.40;;;;;;;-0.99;100.00;99512.00;110368;1260;22976;-74
2023/12/02 11:58:11;;;;;;;122.90;82.90;;;;;;;-1.01;100.00;99507.56;110775;1260;24380;-74
2023/12/02 12:01:55;;;;;;;;;;;;;;;;;;;;;
2023/12/02 12:05:29;;;;;;;131.40;83.50;;;;;;;-0.99;100.00;99507.56;110535;1257;22423;-75
2023/12/02 12:09:04;;;;;;;132.40;83.90;;;;;;;-0.99;100.00;99512.69;110623;1262;22292;-76
2023/12/02 12:12:08;;;;;;;140.70;88.00;;;;;;;-1.00;100.00;99514.73;109075;1276;22015;-76
2023/12/02 12:15:11;;;;;;;147.70;91.30;;;;;;;-0.99;100.00;99511.66;108878;1275;21984;-77
2023/12/02 12:18:44;;;;;;;138.50;86.90;;;;;;;-1.00;100.00;99505.34;109036;1275;22981;-77
2023/12/02 12:21:40;;;;;;;138.30;85.90;;;;;;;-1.03;100.00;99512.02;109011;1275;21978;-78
2023/12/02 12:24:53;;;;;;;127.60;81.10;;;;;;;-1.04;100.00;99511.17;109037;1275;23725;-78
2023/12/02 12:31:48;;;;;;;133.80;82.30;;;;;;;-1.10;100.00;99505.90;108499;1284;22388;-78
2023/12/02 12:35:08;;;;;;;151.90;89.30;;;;;;;-1.10;100.00;99498.89;108058;1290;22204;-77
2023/12/02 12:37:52;;;;;;;142.60;86.80;;;;;;;-1.09;100.00;99497.02;108033;1290;23806;-76
2023/12/02 12:40:29;;;;;;;134.70;88.50;;;;;;;-1.06;100.00;99502.98;108055;1290;22008;-77
2023/12/02 12:42:57;;;;;;;153.20;93.10;;;;;;;-1.05;100.00;99500.23;108576;1279;23705;-75
2023/12/02 12:45:41;;;;;;;153.90;90.50;;;;;;;-1.05;100.00;99495.29;108859;1279;21987;-76
2023/12/02 12:48:30;;;;;;;165.00;97.70;;;;;;;-1.09;100.00;99483.87;109201;1273;23057;-77
2023/12/02 12:51:09;;;;;;;177.80;105.80;;;;;;;-1.05;100.00;99486.23;109543;1268;22751;-77
2023/12/02 12:54:17;;;;;;;203.60;111.00;;;;;;;-1.06;100.00;99485.91;109764;1268;22991;-76
2023/12/02 12:57:09;;;;;;;175.10;103.00;;;;;;;-1.08;100.00;99482.49;109434;1272;21976;-76
2023/12/02 13:00:03;;;;;;;176.90;100.50;;;;;;;-1.10;100.00;99479.09;109411;1273;22869;-78
2023/12/02 13:03:45;;;;;;;166.90;97.80;;;;;;;-1.13;100.00;99483.20;109399;1273;21992;-75
2023/12/02 13:07:11;;;;;;;153.70;90.10;;;;;;;-1.16;100.00;99485.78;109388;1273;23708;-79
2023/12/02 13:10:29;;;;;;;107.80;64.20;;;;;;;-1.18;100.00;99475.37;110069;1268;21975;-77
2023/12/02 13:13:25;;;;;;;98.80;62.00;;;;;;;-1.19;100.00;99471.27;109833;1269;23076;-75
2023/12/02 13:16:22;;;;;;;116.10;68.10;;;;;;;-1.22;100.00;99469.23;109280;1271;23602;-77
2023/12/02 13:19:41;;;;;;;112.10;63.00;;;;;;;-1.25;100.00;99465.65;109364;1272;21997;-75
2023/12/02 13:22:55;;;;;;;131.70;73.00;;;;;;;-1.26;100.00;99470.62;109288;1272;22324;-77
2023/12/02 13:25:42;;;;;;;111.20;66.40;;;;;;;-1.25;100.00;99470.95;108882;1278;21991;-77
2023/12/02 13:28:54;;;;;;;105.00;61.40;;;;;;;-1.22;100.00;99473.33;108892;1278;23001;-76
2023/12/02 13:31:48;;;;;;;;;;;;;;;;;;;;;
2023/12/02 13:35:03;;;;;;;95.30;55.80;;;;;;;-1.27;100.00;99445.02;109140;1273;23828;-77
2023/12/02 13:38:17;;;;;;;86.90;53.40;;;;;;;-1.24;100.00;99436.64;109163;1271;22952;-76
2023/12/02 13:41:03;;;;;;;90.00;56.90;;;;;;;-1.20;100.00;99437.13;109325;1273;24147;-76
2023/12/02 13:43:57;;;;;;;85.70;54.90;;;;;;;-1.18;100.00;99442.23;109839;1260;23588;-78
2023/12/02 13:47:42;;;;;;;90.60;56.40;;;;;;;-1.18;100.00;99447.54;110587;1253;21999;-77
2023/12/02 13:51:31;;;;;;;;;;;;;;;;;;;;;
2023/12/02 13:55:59;;;;;;;91.10;55.70;;;;;;;-1.19;100.00;99454.20;110286;1266;23695;-76
2023/12/02 13:58:59;;;;;;;102.30;56.00;;;;;;;-1.19;100.00;99450.44;110148;1266;21996;-75
2023/12/02 14:02:29;;;;;;;102.40;56.60;;;;;;;-1.19;100.00;99447.20;109692;1267;22760;-77
2023/12/02 14:05:36;;;;;;;101.50;58.80;;;;;;;-1.16;100.00;99445.65;109903;1269;22001;-75
2023/12/02 14:08:32;;;;;;;116.90;65.40;;;;;;;-1.15;100.00;99450.94;109908;1270;21994;-76
2023/12/02 14:12:00;;;;;;;118.10;65.30;;;;;;;-1.14;100.00;99456.39;109762;1270;23032;-75
2023/12/02 14:15:23;;;;;;;127.00;65.60;;;;;;;-1.16;100.00;99463.06;110113;1265;22102;-76
2023/12/02 14:18:34;;;;;;;134.50;73.00;;;;;;;-1.18;100.00;99476.55;110398;1265;24298;-77
2023/12/02 14:21:50;;;;;;;152.60;80.50;;;;;;;-1.15;100.00;99480.13;110786;1259;23112;-82
2023/12/02 14:25:35;;;;;;;168.70;86.30;;;;;;;-1.12;100.00;99483.71;111255;1255;23680;-78
2023/12/02 14:29:27;;;;;;;162.70;87.30;;;;;;;-1.13;100.00;99489.52;110746;1255;22169;-78
2023/12/02 14:33:04;;;;;;;158.30;81.70;;;;;;;-1.16;100.00;99495.34;111429;1259;23502;-78
2023/12/02 14:36:25;;;;;;;155.00;80.40;;;;;;;-1.19;100.00;99507.29;110715;1254;21927;-78
2023/12/02 14:39:17;;;;;;;151.30;78.80;;;;;;;-1.16;100.00;99520.43;110856;1263;22105;-79
2023/12/02 14:43:02;;;;;;;152.80;77.30;;;;;;;-1.15;100.00;99527.60;110302;1265;22983;-79
2023/12/02 14:46:08;;;;;;;151.70;82.20;;;;;;;-1.13;100.00;99532.38;110425;1261;21993;-78
2023/12/02 14:49:01;;;;;;;139.00;77.60;;;;;;;-1.09;100.00;99531.84;110639;1261;23693;-78
2023/12/02 14:52:10;;;;;;;150.20;80.30;;;;;;;-1.08;100.00;99529.45;110396;1261;22317;-78
2023/12/02 14:54:53;;;;;;;155.60;78.40;;;;;;;-1.06;100.00;99529.62;110681;1261;23624;-78
2023/12/02 14:58:14;;;;;;;131.80;73.60;;;;;;;-1.03;100.00;99537.63;110900;1255;22738;-76
2023/12/02 15:01:20;;;;;;;131.00;74.80;;;;;;;-1.04;100.00;99545.49;110782;1260;21977;-78
2023/12/02 15:04:40;;;;;;;133.20;71.30;;;;;;;-1.03;100.00;99550.61;110698;1260;23071;-76
2023/12/02 15:08:24;;;;;;;145.50;77.40;;;;;;;-1.02;100.00;99556.08;110619;1260;23027;-78
2023/12/02 15:11:54;;;;;;;;;;;;;;;;;;;;;
2023/12/02 15:15:13;;;;;;;117.30;66.50;;;;;;;-1.02;100.00;99564.11;110047;1267;21990;-78
2023/12/02 15:18:35;;;;;;;132.40;69.80;;;;;;;-1.03;100.00;99567.19;110227;1262;21977;-79
2023/12/02 15:21:39;;;;;;;113.90;64.90;;;;;;;-1.01;100.00;99569.91;110608;1262;21992;-78
2023/12/02 15:24:51;;;;;;;132.70;66.60;;;;;;;-0.99;100.00;99574.85;110076;1267;22427;-76
2023/12/02 15:28:13;;;;;;;121.00;66.40;;;;;;;-0.97;100.00;99575.36;110388;1267;24275;-77
2023/12/02 15:31:27;;;;;;;;;;;;;;;;;;;;;
2023/12/02 15:34:44;;;;;;;128.30;68.70;;;;;;;-0.93;100.00;99590.73;109776;1271;22503;-77
2023/12/02 15:38:12;;;;;;;132.50;70.00;;;;;;;-0.93;100.00;99600.13;109638;1263;21985;-76
2023/12/02 15:41:32;;;;;;;114.00;63.50;;;;;;;-0.94;100.00;99610.19;109302;1271;22992;-76
2023/12/02 15:49:36;;;;;;;;;;;;;;;;;;;;;
2023/12/02 15:59:45;;;;;;;130.10;70.30;;;;;;;-0.96;100.00;99634.29;107812;1290;22027;-77
2023/12/02 16:02:40;;;;;;;134.40;69.80;;;;;;;-0.95;100.00;99635.81;107591;1294;22037;-76
2023/12/02 16:05:27;;;;;;;139.70;74.20;;;;;;;-0.93;100.00;99632.56;107466;1294;22005;-76
2023/12/02 16:09:15;;;;;;;;;;;;;;;;;;;;;
2023/12/02 16:19:26;;;;;;;126.90;70.60;;;;;;;-0.90;100.00;99633.92;107297;1300;23618;-76
2023/12/02 16:23:13;;;;;;;;;;;;;;;;;;;;;
2023/12/02 16:26:22;;;;;;;137.80;80.20;;;;;;;-0.65;100.00;99641.04;109802;1269;22990;-79
2023/12/02 16:30:06;;;;;;;134.50;74.50;;;;;;;-0.68;100.00;99634.54;110495;1264;21996;-77